Time;durP1;ratioP1;P1;durP2;ratioP2;P2;SDS_P1;SDS_P2;PMS_P1;PMS_P2;Temp;Humidity;BMP_temperature;BMP_pressure;BME280_temperature;BME280_humidity;BME280_pressure;Samples;Min_cycle;Max_cycle;Signal;HPM_P1;HPM_P2
2022/01/04 00:01:23;;;;;;;30.42;6.75;;;8.00;99.90;;;;;;5097193;28;20089;-77
2022/01/04 00:03:51;;;;;;;29.93;6.97;;;8.00;99.90;;;;;;5112934;28;20074;-77
2022/01/04 00:06:16;;;;;;;27.25;6.85;;;8.00;99.90;;;;;;5113623;28;20036;-77
2022/01/04 00:08:42;;;;;;;21.25;6.75;;;7.90;99.90;;;;;;5096382;28;20517;-76
2022/01/04 00:11:15;;;;;;;25.60;7.15;;;8.00;99.90;;;;;;5092287;28;20454;-77
2022/01/04 00:13:42;;;;;;;26.90;7.18;;;8.00;99.90;;;;;;5093220;28;20056;-79
2022/01/04 00:16:08;;;;;;;25.92;7.43;;;8.00;99.90;;;;;;5095960;28;20086;-77
2022/01/04 00:18:35;;;;;;;29.30;7.03;;;8.00;99.90;;;;;;5077279;28;20062;-77
2022/01/04 00:21:00;;;;;;;26.08;7.75;;;8.00;99.90;;;;;;5093457;28;20047;-77
2022/01/04 00:23:27;;;;;;;28.88;7.78;;;8.00;99.90;;;;;;5092772;28;20052;-78
2022/01/04 00:25:53;;;;;;;26.65;7.28;;;7.90;99.90;;;;;;5092298;28;20543;-77
2022/01/04 00:28:19;;;;;;;31.77;8.13;;;7.90;99.90;;;;;;5075659;28;20425;-79
2022/01/04 00:30:45;;;;;;;27.73;6.72;;;7.80;99.90;;;;;;5092465;28;20059;-78
2022/01/04 00:33:13;;;;;;;33.80;8.13;;;7.70;99.90;;;;;;5092536;28;20076;-77
2022/01/04 00:35:40;;;;;;;23.05;6.82;;;7.70;99.90;;;;;;5093023;28;20458;-78
2022/01/04 00:38:06;;;;;;;26.52;6.28;;;7.60;99.90;;;;;;5075876;28;20237;-77
2022/01/04 00:40:32;;;;;;;26.92;7.15;;;7.60;99.90;;;;;;5076040;28;20212;-78
2022/01/04 00:43:05;;;;;;;32.13;7.20;;;7.50;99.90;;;;;;5094110;28;20047;-79
2022/01/04 00:45:36;;;;;;;27.50;6.78;;;7.50;99.90;;;;;;5094095;28;20044;-78
2022/01/04 00:50:32;;;;;;;30.65;8.05;;;7.50;99.90;;;;;;5092564;28;20379;-77
2022/01/04 00:52:59;;;;;;;32.58;6.10;;;7.50;99.90;;;;;;5093153;28;20089;-76
2022/01/04 00:55:26;;;;;;;37.03;8.03;;;7.50;99.90;;;;;;5091885;28;20416;-78
2022/01/04 00:57:51;;;;;;;24.92;7.70;;;7.50;99.90;;;;;;5091701;28;20044;-78
2022/01/04 01:00:19;;;;;;;27.73;8.15;;;7.50;99.90;;;;;;5074053;28;20105;-78
2022/01/04 01:02:45;;;;;;;;;;;7.60;99.90;;;;;;5092446;28;20054;-78
2022/01/04 01:05:11;;;;;;;28.83;7.18;;;7.60;99.90;;;;;;5091880;28;20007;-79
2022/01/04 01:07:37;;;;;;;30.70;7.23;;;7.60;99.90;;;;;;5058947;28;20521;-78
2022/01/04 01:12:41;;;;;;;30.67;7.70;;;7.60;99.90;;;;;;5113680;28;20061;-78
2022/01/04 01:15:08;;;;;;;24.85;6.47;;;7.50;99.90;;;;;;5112253;28;20040;-78
2022/01/04 01:17:34;;;;;;;30.98;8.13;;;7.60;99.90;;;;;;5112669;28;20479;-78
2022/01/04 01:20:01;;;;;;;32.15;7.38;;;7.70;99.90;;;;;;5113102;28;20044;-78
2022/01/04 01:22:27;;;;;;;28.95;7.60;;;7.70;99.90;;;;;;5095185;28;20437;-78
2022/01/04 01:24:53;;;;;;;30.00;8.30;;;7.70;99.90;;;;;;5128955;27;20054;-79
2022/01/04 01:27:18;;;;;;;27.25;7.22;;;7.70;99.90;;;;;;5128929;27;20130;-78
2022/01/04 01:29:44;;;;;;;30.90;7.25;;;7.60;99.90;;;;;;5095477;28;20055;-79
2022/01/04 01:32:10;;;;;;;28.65;8.05;;;7.60;99.90;;;;;;5095722;28;20039;-78
2022/01/04 01:34:36;;;;;;;28.40;7.95;;;7.60;99.90;;;;;;5094757;28;20407;-77
2022/01/04 01:37:02;;;;;;;30.83;8.30;;;7.60;99.90;;;;;;5077665;28;20040;-78
2022/01/04 01:39:28;;;;;;;35.42;7.53;;;7.50;99.90;;;;;;5111680;28;20083;-78
2022/01/04 01:41:53;;;;;;;27.13;7.53;;;7.60;99.90;;;;;;5094908;28;20074;-79
2022/01/04 01:44:21;;;;;;;26.88;7.63;;;7.60;99.90;;;;;;5112860;28;20387;-77
2022/01/04 01:46:47;;;;;;;28.50;8.13;;;7.60;99.90;;;;;;5094527;28;20488;-77
2022/01/04 01:49:12;;;;;;;29.33;8.93;;;7.60;99.90;;;;;;5094503;28;20055;-78
2022/01/04 01:51:38;;;;;;;29.20;7.32;;;7.60;99.90;;;;;;5111400;28;20043;-79
2022/01/04 01:54:04;;;;;;;30.50;8.40;;;7.50;99.90;;;;;;5128708;28;20051;-78
2022/01/04 01:56:30;;;;;;;29.38;8.18;;;7.50;99.90;;;;;;5077897;28;20044;-79
2022/01/04 01:58:57;;;;;;;32.25;8.38;;;7.50;99.90;;;;;;5094629;28;20066;-79
2022/01/04 02:01:26;;;;;;;39.53;9.75;;;7.50;99.90;;;;;;5112705;28;20043;-77
2022/01/04 02:03:52;;;;;;;30.05;7.88;;;7.50;99.90;;;;;;5111217;28;20050;-78
2022/01/04 02:06:37;;;;;;;31.15;8.18;;;7.50;99.90;;;;;;5097029;28;20047;-77
2022/01/04 02:09:04;;;;;;;27.95;8.32;;;7.50;99.90;;;;;;5128461;28;20054;-77
2022/01/04 02:11:31;;;;;;;36.25;8.38;;;7.50;99.90;;;;;;5112889;28;20052;-77
2022/01/04 02:13:58;;;;;;;33.20;9.80;;;7.50;99.90;;;;;;5078230;28;20433;-79
2022/01/04 02:16:29;;;;;;;31.75;7.97;;;7.50;99.90;;;;;;5077984;28;20040;-78
2022/01/04 02:19:03;;;;;;;33.42;9.38;;;7.50;99.90;;;;;;5128646;28;20079;-79
2022/01/04 02:21:30;;;;;;;37.33;8.07;;;7.50;99.90;;;;;;5095320;28;20052;-78
2022/01/04 02:23:56;;;;;;;34.20;9.25;;;7.40;99.90;;;;;;5095297;28;20486;-78
2022/01/04 02:26:23;;;;;;;29.50;8.30;;;7.40;99.90;;;;;;5094564;28;20048;-77
2022/01/04 02:28:50;;;;;;;38.55;9.38;;;7.40;99.90;;;;;;5095494;28;20052;-78
2022/01/04 02:31:16;;;;;;;;;;;7.40;99.90;;;;;;5082091;28;20090;-78
2022/01/04 02:33:42;;;;;;;35.13;8.45;;;7.40;99.90;;;;;;5133582;27;19977;-78
2022/01/04 02:36:10;;;;;;;31.90;9.10;;;7.50;99.90;;;;;;5116425;28;20096;-78
2022/01/04 02:38:37;;;;;;;36.90;8.95;;;7.40;99.90;;;;;;5098383;28;20154;-78
2022/01/04 02:41:03;;;;;;;38.95;9.95;;;7.50;99.90;;;;;;5115509;27;20051;-78
2022/01/04 02:43:29;;;;;;;32.22;8.50;;;7.50;99.90;;;;;;5116378;28;20043;-78
2022/01/04 02:45:55;;;;;;;30.67;9.15;;;7.50;99.90;;;;;;5116921;28;20055;-80
2022/01/04 02:48:22;;;;;;;31.63;8.48;;;7.50;99.90;;;;;;5082058;28;20098;-79
2022/01/04 02:50:50;;;;;;;25.95;8.40;;;7.50;99.90;;;;;;5117340;28;20043;-79
2022/01/04 02:53:17;;;;;;;41.75;9.20;;;7.50;99.90;;;;;;5065973;28;20150;-79
2022/01/04 02:55:45;;;;;;;33.78;8.85;;;7.60;99.90;;;;;;5117784;28;20052;-79
2022/01/04 02:58:11;;;;;;;33.80;9.57;;;7.60;99.90;;;;;;5082383;28;20052;-80
2022/01/04 03:00:37;;;;;;;38.47;9.38;;;7.60;99.90;;;;;;5082611;28;20062;-80
2022/01/04 03:03:03;;;;;;;37.97;10.00;;;7.70;99.90;;;;;;5099081;28;20104;-80
2022/01/04 03:05:28;;;;;;;30.05;8.65;;;7.70;99.90;;;;;;5100046;28;20070;-79
2022/01/04 03:07:55;;;;;;;38.85;9.38;;;7.70;99.90;;;;;;5133709;27;20438;-79
2022/01/04 03:10:21;;;;;;;37.45;9.80;;;7.80;99.90;;;;;;5100701;28;20122;-77
2022/01/04 03:12:47;;;;;;;32.10;8.52;;;7.80;99.90;;;;;;5088293;28;20094;-78
2022/01/04 03:15:13;;;;;;;29.73;9.93;;;7.80;99.90;;;;;;5105678;28;20062;-79
2022/01/04 03:17:40;;;;;;;40.58;11.57;;;7.80;99.90;;;;;;5137576;27;20138;-78
2022/01/04 03:20:07;;;;;;;33.17;10.23;;;7.90;99.90;;;;;;5102309;28;20039;-80
2022/01/04 03:22:33;;;;;;;29.40;9.82;;;7.90;99.90;;;;;;5118983;28;20086;-79
2022/01/04 03:25:00;;;;;;;34.67;10.48;;;7.80;99.90;;;;;;5099990;28;20079;-79
2022/01/04 03:27:26;;;;;;;36.08;11.13;;;7.80;99.90;;;;;;5084524;28;20134;-77
2022/01/04 03:29:52;;;;;;;37.13;11.10;;;7.80;99.90;;;;;;5084582;28;20083;-79
2022/01/04 03:32:18;;;;;;;40.30;11.45;;;7.80;99.90;;;;;;5101562;28;20048;-79
2022/01/04 03:34:44;;;;;;;34.58;11.23;;;7.80;99.90;;;;;;5068411;28;20047;-78
2022/01/04 03:37:10;;;;;;;41.83;11.38;;;7.80;99.90;;;;;;5100729;28;20372;-79
2022/01/04 03:39:35;;;;;;;46.70;11.88;;;7.80;99.90;;;;;;5084966;28;20078;-77
2022/01/04 03:42:03;;;;;;;36.65;12.07;;;7.80;99.90;;;;;;5084202;28;20052;-79
2022/01/04 03:44:29;;;;;;;40.35;12.38;;;7.80;99.90;;;;;;5101575;28;20138;-78
2022/01/04 03:46:56;;;;;;;25.85;8.68;;;7.70;99.90;;;;;;5119410;28;20032;-78
2022/01/04 03:49:22;;;;;;;46.20;12.80;;;7.80;99.90;;;;;;5120350;28;20059;-78
2022/01/04 03:51:49;;;;;;;49.80;13.10;;;7.70;99.90;;;;;;5136183;27;20494;-78
2022/01/04 03:54:15;;;;;;;50.38;14.30;;;7.70;99.90;;;;;;5102656;28;20042;-78
2022/01/04 03:56:41;;;;;;;45.90;13.88;;;7.70;99.90;;;;;;5085430;28;20044;-78
2022/01/04 03:59:07;;;;;;;53.58;14.80;;;7.70;99.90;;;;;;5102405;28;20151;-79
2022/01/04 04:01:32;;;;;;;48.55;13.75;;;7.60;99.90;;;;;;5085126;28;20054;-77
2022/01/04 04:03:58;;;;;;;46.15;12.88;;;7.70;99.90;;;;;;5085616;28;20096;-78
2022/01/04 04:06:24;;;;;;;39.92;12.77;;;7.60;99.90;;;;;;5120523;28;20043;-77
2022/01/04 04:08:50;;;;;;;49.15;13.35;;;7.60;99.90;;;;;;5085899;28;20134;-78
2022/01/04 04:11:16;;;;;;;45.38;12.95;;;7.50;99.90;;;;;;5136398;27;20398;-77
2022/01/04 04:13:41;;;;;;;43.35;13.50;;;7.50;99.90;;;;;;5086634;28;20080;-79
2022/01/04 04:16:07;;;;;;;48.25;13.93;;;7.50;99.90;;;;;;5103806;28;20130;-80
2022/01/04 04:18:33;;;;;;;45.00;12.95;;;7.60;99.90;;;;;;5086568;28;20055;-79
2022/01/04 04:20:59;;;;;;;47.00;14.23;;;7.60;99.90;;;;;;5103327;28;20126;-79
2022/01/04 04:23:24;;;;;;;42.83;13.35;;;7.60;99.90;;;;;;5102964;28;20104;-79
2022/01/04 04:25:50;;;;;;;43.30;14.30;;;7.70;99.90;;;;;;5137370;27;20084;-79
2022/01/04 04:28:16;;;;;;;43.42;13.25;;;7.70;99.90;;;;;;5084192;28;20059;-78
2022/01/04 04:30:42;;;;;;;39.72;13.23;;;7.70;99.90;;;;;;5116655;28;20065;-76
2022/01/04 04:33:07;;;;;;;40.67;12.70;;;7.80;99.90;;;;;;5098390;28;20050;-77
2022/01/04 04:35:33;;;;;;;50.90;14.20;;;7.80;99.90;;;;;;5097335;28;20047;-77
2022/01/04 04:38:00;;;;;;;47.40;14.48;;;7.80;99.90;;;;;;5097142;28;20126;-77
2022/01/04 04:40:26;;;;;;;44.75;13.48;;;7.80;99.90;;;;;;5114560;28;20088;-77
2022/01/04 04:42:52;;;;;;;35.78;12.13;;;7.80;99.90;;;;;;5096746;28;20047;-78
2022/01/04 04:45:18;;;;;;;40.72;13.30;;;7.80;99.90;;;;;;5114417;28;20196;-77
2022/01/04 04:47:44;;;;;;;43.00;12.37;;;7.80;99.90;;;;;;5096975;28;20044;-77
2022/01/04 04:50:10;;;;;;;35.08;12.82;;;7.90;99.90;;;;;;5114737;28;20333;-79
2022/01/04 04:52:36;;;;;;;39.80;12.52;;;7.90;99.90;;;;;;5114206;28;20051;-77
2022/01/04 04:55:04;;;;;;;36.72;12.27;;;7.90;99.90;;;;;;5062673;28;20051;-80
2022/01/04 04:57:30;;;;;;;41.65;12.23;;;7.90;99.90;;;;;;5115313;28;20122;-78
2022/01/04 04:59:56;;;;;;;40.75;12.43;;;7.90;99.90;;;;;;5097795;28;20452;-78
2022/01/04 05:02:21;;;;;;;40.45;13.13;;;8.00;99.90;;;;;;5115157;28;20479;-79
2022/01/04 05:04:48;;;;;;;44.13;13.23;;;8.00;99.90;;;;;;5096274;28;20047;-79
2022/01/04 05:07:14;;;;;;;40.60;13.10;;;8.00;99.90;;;;;;5078218;28;20079;-78
2022/01/04 05:09:40;;;;;;;37.72;12.75;;;8.00;99.90;;;;;;5078779;28;20055;-77
2022/01/04 05:12:25;;;;;;;44.90;14.48;;;8.00;99.90;;;;;;5113710;28;20395;-78
2022/01/04 05:14:51;;;;;;;45.72;13.88;;;8.00;99.90;;;;;;5078928;28;20055;-77
2022/01/04 05:17:25;;;;;;;43.85;14.70;;;8.00;99.90;;;;;;5114007;28;20138;-77
2022/01/04 05:19:55;;;;;;;38.35;14.40;;;8.00;99.90;;;;;;5129272;27;20051;-78
2022/01/04 05:22:36;;;;;;;42.30;13.25;;;8.00;99.90;;;;;;5097424;28;20083;-77
2022/01/04 05:25:04;;;;;;;40.28;13.57;;;8.00;99.90;;;;;;5113307;28;20039;-78
2022/01/04 05:27:30;;;;;;;45.70;14.63;;;7.90;99.90;;;;;;5077799;28;20051;-78
2022/01/04 05:29:56;;;;;;;43.40;15.13;;;8.00;99.90;;;;;;5079230;28;20555;-77
2022/01/04 05:32:22;;;;;;;38.03;14.00;;;7.90;99.90;;;;;;5113137;28;20100;-78
2022/01/04 05:34:47;;;;;;;42.65;12.60;;;7.90;99.90;;;;;;5095517;28;20091;-77
2022/01/04 05:37:14;;;;;;;47.03;14.43;;;7.90;99.90;;;;;;5094891;28;20047;-79
2022/01/04 05:39:40;;;;;;;39.17;12.88;;;7.90;99.90;;;;;;5096843;28;20278;-78
2022/01/04 05:42:08;;;;;;;40.25;13.77;;;7.90;99.90;;;;;;5079275;28;20050;-78
2022/01/04 05:44:53;;;;;;;42.33;14.50;;;7.90;99.90;;;;;;5097791;28;20047;-79
2022/01/04 05:47:20;;;;;;;41.00;14.88;;;7.90;99.90;;;;;;5113650;28;20039;-76
2022/01/04 05:49:45;;;;;;;38.67;13.63;;;7.90;99.90;;;;;;5112198;28;20051;-77
2022/01/04 05:52:11;;;;;;;41.80;13.43;;;7.90;99.90;;;;;;5095265;28;20051;-76
2022/01/04 05:54:37;;;;;;;42.65;14.43;;;7.90;99.90;;;;;;5129390;28;20134;-78
2022/01/04 05:57:03;;;;;;;42.58;13.27;;;7.80;99.90;;;;;;5113458;28;20062;-76
2022/01/04 05:59:29;;;;;;;38.00;13.30;;;7.90;99.90;;;;;;5112959;28;20039;-76
2022/01/04 06:01:54;;;;;;;35.63;12.50;;;7.80;99.90;;;;;;5113277;28;20044;-77
2022/01/04 06:04:21;;;;;;;41.85;14.32;;;7.80;99.90;;;;;;5097588;28;20092;-77
2022/01/04 06:06:47;;;;;;;42.90;13.52;;;7.80;99.90;;;;;;5101122;28;20061;-78
2022/01/04 06:09:21;;;;;;;36.17;12.48;;;7.70;99.90;;;;;;5124059;28;20134;-77
2022/01/04 06:17:00;;;;;;;37.10;13.25;;;7.70;99.90;;;;;;5091835;28;20051;-77
2022/01/04 06:19:25;;;;;;;46.00;14.15;;;7.70;99.90;;;;;;5091375;28;20452;-77
2022/01/04 06:21:52;;;;;;;40.55;13.75;;;7.70;99.90;;;;;;5123901;28;20044;-77
2022/01/04 06:24:18;;;;;;;41.70;14.73;;;7.60;99.90;;;;;;5122207;28;20070;-77
2022/01/04 06:26:44;;;;;;;35.45;15.00;;;7.60;99.90;;;;;;5104995;28;20048;-78
2022/01/04 06:29:11;;;;;;;44.38;14.43;;;7.70;99.90;;;;;;5124840;28;20083;-77
2022/01/04 06:31:41;;;;;;;47.42;15.05;;;7.70;99.90;;;;;;5119715;28;20052;-78
2022/01/04 06:34:06;;;;;;;45.55;14.60;;;7.70;99.90;;;;;;5118903;28;20088;-78
2022/01/04 06:36:32;;;;;;;44.25;13.95;;;7.70;99.90;;;;;;5117960;28;20047;-77
2022/01/04 06:38:58;;;;;;;45.05;15.30;;;7.70;99.90;;;;;;5117033;28;20130;-77
2022/01/04 06:41:24;;;;;;;41.58;15.02;;;7.70;99.90;;;;;;5117607;28;20507;-78
2022/01/04 06:43:50;;;;;;;43.67;15.63;;;7.70;99.90;;;;;;5098573;28;20069;-78
2022/01/04 06:46:15;;;;;;;46.13;14.65;;;7.70;99.90;;;;;;5099606;28;20051;-78
2022/01/04 06:48:42;;;;;;;42.58;17.40;;;7.70;99.90;;;;;;5116951;28;20056;-77
2022/01/04 06:51:09;;;;;;;49.50;15.55;;;7.70;99.90;;;;;;5098651;28;20472;-78
2022/01/04 06:53:35;;;;;;;41.03;14.52;;;7.70;99.90;;;;;;5132450;27;20075;-77
2022/01/04 06:56:01;;;;;;;45.67;14.43;;;7.70;99.90;;;;;;5116309;28;20506;-78
2022/01/04 06:58:27;;;;;;;47.45;16.92;;;7.70;99.90;;;;;;5132444;27;20086;-77
2022/01/04 07:00:52;;;;;;;44.65;15.77;;;7.70;99.90;;;;;;5097897;28;20074;-78
2022/01/04 07:03:18;;;;;;;50.25;16.00;;;7.70;99.90;;;;;;5097920;28;20043;-77
2022/01/04 07:05:44;;;;;;;48.35;14.50;;;7.70;99.90;;;;;;5098014;28;20044;-77
2022/01/04 07:08:10;;;;;;;34.50;12.80;;;7.70;99.90;;;;;;5115989;28;20047;-77
2022/01/04 07:10:35;;;;;;;47.70;15.32;;;7.80;99.90;;;;;;5097216;28;20051;-77
2022/01/04 07:13:01;;;;;;;40.40;15.20;;;7.80;99.90;;;;;;5097800;28;20078;-77
2022/01/04 07:15:27;;;;;;;41.45;15.02;;;7.80;99.90;;;;;;5096666;28;20488;-78
2022/01/04 07:17:53;;;;;;;39.42;15.68;;;7.90;99.90;;;;;;5131953;27;20510;-77
2022/01/04 07:20:18;;;;;;;49.25;15.45;;;7.80;99.90;;;;;;5097280;28;20544;-77
2022/01/04 07:22:53;;;;;;;53.22;17.35;;;7.80;99.90;;;;;;5114411;28;20039;-77
2022/01/04 07:25:19;;;;;;;44.63;16.95;;;7.80;99.90;;;;;;5115522;28;20060;-77
2022/01/04 07:27:45;;;;;;;45.13;16.02;;;7.80;99.90;;;;;;5080332;28;20047;-77
2022/01/04 07:30:11;;;;;;;41.58;14.93;;;7.90;99.90;;;;;;5097579;28;20052;-77
2022/01/04 07:32:37;;;;;;;43.67;16.27;;;7.80;99.90;;;;;;5096952;28;20454;-77
2022/01/04 07:35:03;;;;;;;48.65;17.00;;;7.90;99.90;;;;;;5115763;28;20052;-76
2022/01/04 07:37:32;;;;;;;45.30;15.98;;;7.90;99.90;;;;;;5113775;28;20079;-76
2022/01/04 07:39:58;;;;;;;45.72;16.67;;;7.80;99.90;;;;;;5063281;28;20047;-77
2022/01/04 07:42:24;;;;;;;42.35;14.52;;;7.90;99.90;;;;;;5114908;28;20096;-77
2022/01/04 07:44:50;;;;;;;47.78;16.83;;;7.90;99.90;;;;;;5115069;28;20040;-77
2022/01/04 07:47:17;;;;;;;49.53;16.73;;;7.90;99.90;;;;;;5097363;28;20047;-76
2022/01/04 07:49:42;;;;;;;53.95;17.35;;;7.90;99.90;;;;;;5114809;28;20135;-78
2022/01/04 07:52:11;;;;;;;49.08;16.88;;;7.80;99.90;;;;;;5096884;28;20043;-76
2022/01/04 07:54:37;;;;;;;50.58;15.88;;;7.80;99.90;;;;;;5114856;28;20043;-77
2022/01/04 07:57:03;;;;;;;44.83;16.13;;;7.90;99.90;;;;;;5114984;28;20067;-78
2022/01/04 07:59:30;;;;;;;49.40;16.90;;;7.80;99.90;;;;;;5097186;28;20412;-78
2022/01/04 08:01:57;;;;;;;44.50;16.63;;;7.90;99.90;;;;;;5096448;28;20050;-77
2022/01/04 08:04:22;;;;;;;51.17;16.85;;;7.80;99.90;;;;;;5062972;28;20066;-77
2022/01/04 08:06:48;;;;;;;43.53;15.10;;;7.90;99.90;;;;;;5114928;28;20035;-77
2022/01/04 08:09:14;;;;;;;44.63;15.15;;;7.80;99.90;;;;;;5115437;28;20047;-77
2022/01/04 08:11:39;;;;;;;41.67;15.30;;;7.80;99.90;;;;;;5116300;28;20436;-76
2022/01/04 08:14:05;;;;;;;41.10;15.25;;;7.80;99.90;;;;;;5101228;28;20089;-79
2022/01/04 08:16:31;;;;;;;39.17;14.88;;;7.80;99.90;;;;;;5102348;28;20040;-76
2022/01/04 08:18:57;;;;;;;40.08;14.43;;;7.80;99.90;;;;;;5103211;28;20073;-77
2022/01/04 08:21:22;;;;;;;37.72;13.93;;;7.80;99.90;;;;;;5120815;28;20088;-76
2022/01/04 08:23:48;;;;;;;36.65;13.50;;;7.80;99.90;;;;;;5124468;28;20099;-76
2022/01/04 08:26:15;;;;;;;48.90;14.45;;;7.80;99.90;;;;;;5108191;28;20116;-79
2022/01/04 08:28:41;;;;;;;39.63;13.70;;;7.80;99.90;;;;;;5142227;27;20103;-79
2022/01/04 08:31:07;;;;;;;43.65;13.43;;;7.80;99.90;;;;;;5091718;28;20051;-77
2022/01/04 08:33:33;;;;;;;37.10;13.18;;;7.90;99.90;;;;;;5108141;28;20409;-77
2022/01/04 08:35:59;;;;;;;38.67;13.40;;;7.80;99.90;;;;;;5106994;28;20071;-77
2022/01/04 08:38:24;;;;;;;38.58;13.23;;;7.80;99.90;;;;;;5124037;28;20044;-77
2022/01/04 08:40:50;;;;;;;37.05;13.68;;;7.90;99.90;;;;;;5087651;28;20443;-78
2022/01/04 08:43:17;;;;;;;34.33;13.35;;;7.80;99.90;;;;;;5121601;28;20051;-77
2022/01/04 08:45:44;;;;;;;40.28;14.30;;;7.90;99.90;;;;;;5122305;28;20055;-77
2022/01/04 08:48:10;;;;;;;38.30;13.15;;;7.90;99.90;;;;;;5107112;28;20095;-78
2022/01/04 08:50:36;;;;;;;41.47;14.40;;;7.90;99.90;;;;;;5123924;28;20095;-78
2022/01/04 08:53:03;;;;;;;40.05;15.23;;;7.90;99.90;;;;;;5124977;28;20475;-79
2022/01/04 08:55:29;;;;;;;42.72;15.18;;;8.00;99.90;;;;;;5141232;27;20047;-78
2022/01/04 08:57:55;;;;;;;37.22;14.02;;;8.00;99.90;;;;;;5125548;28;20035;-77
2022/01/04 09:00:31;;;;;;;42.60;15.30;;;8.00;99.90;;;;;;5124495;28;20044;-77
2022/01/04 09:03:00;;;;;;;41.75;14.27;;;8.00;99.90;;;;;;5110851;28;20448;-78
2022/01/04 09:05:27;;;;;;;41.72;15.32;;;8.00;99.90;;;;;;5128011;28;20111;-77
2022/01/04 09:07:53;;;;;;;45.97;15.97;;;8.10;99.90;;;;;;5090758;28;20074;-77
2022/01/04 09:10:18;;;;;;;42.95;15.38;;;8.10;99.90;;;;;;5124456;27;20289;-78
2022/01/04 09:13:01;;;;;;;46.42;16.65;;;8.10;99.90;;;;;;5121864;28;20089;-78
2022/01/04 09:21:05;;;;;;;43.20;15.40;;;8.10;99.90;;;;;;5102573;28;20056;-77
2022/01/04 09:23:31;;;;;;;47.25;15.52;;;8.10;99.90;;;;;;5084765;28;20139;-79
2022/01/04 09:25:57;;;;;;;47.85;16.38;;;8.10;99.90;;;;;;5101511;28;20062;-77
2022/01/04 09:28:29;;;;;;;44.83;16.02;;;8.10;99.90;;;;;;5101727;28;20055;-76
2022/01/04 09:30:58;;;;;;;45.90;16.40;;;8.00;99.90;;;;;;5102061;28;20048;-76
2022/01/04 09:33:24;;;;;;;51.53;18.35;;;8.00;99.90;;;;;;5119179;28;20047;-76
2022/01/04 09:35:50;;;;;;;41.90;14.57;;;7.90;99.90;;;;;;5120080;28;20154;-75
2022/01/04 09:38:18;;;;;;;54.15;16.63;;;7.90;99.90;;;;;;5100851;28;20051;-75
2022/01/04 09:40:44;;;;;;;39.78;14.00;;;7.80;99.90;;;;;;5136027;28;20055;-76
2022/01/04 09:43:09;;;;;;;23.08;7.57;;;7.70;99.90;;;;;;5083642;28;20081;-76
2022/01/04 09:45:39;;;;;;;13.73;4.00;;;7.60;99.90;;;;;;5126516;28;20031;-79
2022/01/04 09:48:05;;;;;;;9.88;1.98;;;7.50;99.90;;;;;;5092540;28;20051;-77
2022/01/04 09:50:37;;;;;;;6.40;1.40;;;7.30;99.90;;;;;;5103474;28;20104;-77
2022/01/04 09:53:06;;;;;;;7.07;1.00;;;7.20;99.90;;;;;;5099973;28;20509;-76
2022/01/04 09:55:34;;;;;;;9.57;1.35;;;7.10;99.90;;;;;;5087213;28;20051;-77
2022/01/04 09:58:00;;;;;;;10.63;1.50;;;7.00;99.90;;;;;;5104566;28;20048;-76
2022/01/04 10:00:27;;;;;;;8.00;1.10;;;7.00;99.90;;;;;;5123136;28;20043;-75
2022/01/04 10:03:11;;;;;;;7.18;1.27;;;7.00;99.90;;;;;;5123879;28;20117;-77
2022/01/04 10:05:37;;;;;;;5.35;1.20;;;7.00;99.90;;;;;;5125160;28;20043;-77
2022/01/04 10:08:05;;;;;;;4.78;0.80;;;7.00;99.90;;;;;;5124761;28;20062;-76
2022/01/04 10:10:32;;;;;;;4.60;1.20;;;7.00;99.90;;;;;;5122352;28;20043;-76
2022/01/04 10:13:09;;;;;;;6.70;0.90;;;7.00;99.90;;;;;;5122158;28;20052;-75
2022/01/04 10:15:50;;;;;;;9.68;0.90;;;7.10;99.90;;;;;;5140331;28;20528;-76
2022/01/04 10:18:23;;;;;;;9.40;2.65;;;7.10;99.90;;;;;;5073436;28;20047;-76
2022/01/04 10:20:58;;;;;;;11.07;1.67;;;7.10;99.90;;;;;;5122865;28;20066;-76
2022/01/04 10:23:25;;;;;;;7.18;1.58;;;7.20;99.90;;;;;;5139132;28;20056;-76
2022/01/04 10:26:00;;;;;;;;;;;7.10;99.90;;;;;;5123169;28;20044;-76
2022/01/04 10:28:33;;;;;;;7.90;0.90;;;7.10;99.90;;;;;;5123006;28;19926;-75
2022/01/04 10:31:05;;;;;;;7.20;1.65;;;7.20;99.90;;;;;;5124335;28;20468;-76
2022/01/04 10:33:34;;;;;;;5.15;1.20;;;7.20;99.90;;;;;;5126007;28;20356;-77
2022/01/04 10:36:00;;;;;;;13.07;1.42;;;7.20;99.90;;;;;;5107936;28;20055;-75
2022/01/04 10:38:35;;;;;;;9.88;1.60;;;7.10;99.90;;;;;;5125571;28;20086;-74
2022/01/04 10:41:11;;;;;;;5.80;1.08;;;7.20;99.90;;;;;;5107904;28;20040;-75
2022/01/04 10:43:40;;;;;;;10.90;1.10;;;7.20;99.90;;;;;;5106161;28;20047;-76
2022/01/04 10:46:06;;;;;;;9.40;2.38;;;7.20;99.90;;;;;;5124484;28;20044;-77
2022/01/04 10:48:39;;;;;;;6.82;1.40;;;7.20;99.90;;;;;;5090582;28;20074;-75
2022/01/04 10:51:10;;;;;;;9.40;1.90;;;7.20;99.90;;;;;;5128005;28;20039;-76
2022/01/04 10:53:45;;;;;;;10.80;1.83;;;7.20;99.90;;;;;;5108354;28;20086;-75
2022/01/04 10:56:16;;;;;;;10.68;1.52;;;7.20;99.90;;;;;;5090610;28;20052;-77
2022/01/04 10:58:48;;;;;;;9.60;1.88;;;7.20;99.90;;;;;;5091415;28;20047;-74
2022/01/04 11:01:17;;;;;;;14.70;2.75;;;7.30;99.90;;;;;;5126699;28;20377;-75
2022/01/04 11:03:53;;;;;;;15.15;1.92;;;7.30;99.90;;;;;;5126707;28;20069;-74
2022/01/04 11:06:37;;;;;;;13.03;2.63;;;7.30;99.90;;;;;;5108336;28;20537;-75
2022/01/04 11:09:05;;;;;;;11.30;2.05;;;7.20;99.90;;;;;;5142784;27;20046;-76
2022/01/04 11:11:32;;;;;;;9.68;1.95;;;7.20;99.90;;;;;;5107636;28;20069;-74
2022/01/04 11:13:58;;;;;;;11.63;1.48;;;7.10;99.90;;;;;;5126959;28;20131;-74
2022/01/04 11:16:26;;;;;;;6.95;1.20;;;7.20;99.90;;;;;;5142151;27;20080;-75
2022/01/04 11:18:54;;;;;;;10.93;1.80;;;7.20;99.90;;;;;;5126076;28;20051;-75
2022/01/04 11:21:31;;;;;;;9.45;1.40;;;7.10;99.90;;;;;;5106743;28;20059;-75
2022/01/04 11:23:58;;;;;;;7.47;1.40;;;7.10;99.90;;;;;;5142400;27;20047;-74
2022/01/04 11:26:25;;;;;;;8.38;1.60;;;7.10;99.90;;;;;;5126767;28;20044;-74
2022/01/04 11:28:53;;;;;;;12.45;1.70;;;6.90;99.90;;;;;;5090224;28;20039;-74
2022/01/04 11:31:47;;;;;;;8.02;1.30;;;6.90;99.90;;;;;;5125098;28;20055;-74
2022/01/04 11:34:50;;;;;;;6.28;1.00;;;6.80;99.90;;;;;;5100062;28;20051;-75
2022/01/04 11:37:21;;;;;;;5.75;1.38;;;6.80;99.90;;;;;;5107070;28;20081;-76
2022/01/04 11:39:47;;;;;;;6.53;1.20;;;6.80;99.90;;;;;;5125400;28;20047;-77
2022/01/04 11:42:34;;;;;;;5.35;0.60;;;6.70;99.90;;;;;;5125603;28;20051;-76
2022/01/04 11:45:00;;;;;;;8.90;1.00;;;6.80;99.90;;;;;;5125239;28;20055;-75
2022/01/04 11:47:28;;;;;;;8.15;0.93;;;6.60;99.90;;;;;;5088403;28;20490;-74
2022/01/04 11:50:13;;;;;;;12.05;1.73;;;6.60;99.90;;;;;;5104414;28;20047;-76
2022/01/04 11:52:46;;;;;;;6.35;0.95;;;6.50;99.90;;;;;;5125732;27;20047;-74
2022/01/04 11:55:36;;;;;;;8.13;0.80;;;6.50;99.90;;;;;;5122865;28;20054;-76
2022/01/04 11:58:13;;;;;;;5.88;0.73;;;6.50;99.90;;;;;;5146085;27;20053;-76
2022/01/04 12:00:43;;;;;;;7.78;0.80;;;6.50;99.90;;;;;;5131271;28;20051;-73
2022/01/04 12:03:13;;;;;;;7.15;0.93;;;6.30;99.90;;;;;;5101464;28;20039;-74
2022/01/04 12:06:01;;;;;;;5.32;0.68;;;6.30;99.90;;;;;;5114305;28;20047;-75
2022/01/04 12:08:40;;;;;;;4.05;0.65;;;5.90;99.90;;;;;;5079639;28;20043;-74
2022/01/04 12:11:24;;;;;;;4.32;0.60;;;5.70;99.90;;;;;;5114292;28;20039;-75
2022/01/04 12:13:52;;;;;;;6.22;0.50;;;5.60;99.90;;;;;;5130769;27;20073;-75
2022/01/04 12:16:45;;;;;;;1.58;0.20;;;5.60;99.90;;;;;;5114560;28;20051;-75
2022/01/04 12:19:14;;;;;;;7.22;0.82;;;5.60;99.90;;;;;;5079844;28;20475;-75
2022/01/04 12:21:43;;;;;;;3.20;0.30;;;5.60;99.90;;;;;;5114637;28;20047;-75
2022/01/04 12:24:12;;;;;;;3.55;0.50;;;5.50;99.90;;;;;;5114779;28;20131;-74
2022/01/04 12:26:39;;;;;;;7.13;0.50;;;5.50;99.90;;;;;;5113664;28;20079;-74
2022/01/04 12:29:10;;;;;;;6.07;0.55;;;5.60;99.90;;;;;;5115332;28;20039;-76
2022/01/04 12:31:48;;;;;;;8.73;0.52;;;5.60;99.90;;;;;;5114449;28;20488;-75
2022/01/04 12:34:33;;;;;;;3.72;0.60;;;5.60;99.90;;;;;;5097086;28;20055;-75
2022/01/04 12:37:00;;;;;;;5.50;0.63;;;5.60;99.90;;;;;;5078323;28;20048;-75
2022/01/04 12:39:41;;;;;;;6.60;0.60;;;5.60;99.90;;;;;;5113004;27;20054;-75
2022/01/04 12:42:11;;;;;;;3.08;0.60;;;5.50;99.90;;;;;;5095696;28;20104;-74
2022/01/04 12:44:38;;;;;;;3.95;0.50;;;5.50;99.90;;;;;;5113284;28;20127;-75
2022/01/04 12:47:06;;;;;;;6.20;0.50;;;5.20;99.90;;;;;;5095901;28;20051;-75
2022/01/04 12:49:33;;;;;;;4.03;0.30;;;5.20;99.90;;;;;;5114269;28;20082;-75
2022/01/04 12:52:07;;;;;;;1.92;0.30;;;5.20;99.90;;;;;;5096172;28;20136;-75
2022/01/04 12:54:36;;;;;;;7.05;0.47;;;5.20;99.90;;;;;;5096947;28;20126;-75
2022/01/04 12:57:22;;;;;;;4.07;0.40;;;5.10;99.90;;;;;;5113685;28;20092;-76
2022/01/04 13:00:00;;;;;;;6.13;0.60;;;5.00;99.90;;;;;;5130764;27;20051;-76
2022/01/04 13:02:28;;;;;;;6.00;0.60;;;5.10;99.90;;;;;;5114435;28;20044;-76
2022/01/04 13:05:00;;;;;;;7.97;1.60;;;5.20;99.90;;;;;;5130051;27;20147;-74
2022/01/04 13:07:38;;;;;;;4.18;0.63;;;5.30;99.90;;;;;;5113657;28;20497;-75